Time;durP1;ratioP1;P1;durP2;ratioP2;P2;SDS_P1;SDS_P2;PMS_P1;PMS_P2;Temp;Humidity;BMP_temperature;BMP_pressure;BME280_temperature;BME280_humidity;BME280_pressure;Samples;Min_cycle;Max_cycle;Signal;HPM_P1;HPM_P2
2023/02/14 00:00:02;;;;;;;5.22;2.00;;;23.90;51.70;;;;;;5052286;28;20677;-52
2023/02/14 00:02:33;;;;;;;5.88;2.10;;;23.90;51.70;;;;;;5051979;28;20226;-52
2023/02/14 00:05:05;;;;;;;5.00;1.83;;;23.90;51.70;;;;;;5051789;28;20199;-51
2023/02/14 00:07:36;;;;;;;4.80;1.83;;;23.90;51.60;;;;;;5051513;28;20202;-54
2023/02/14 00:10:07;;;;;;;4.05;1.42;;;23.90;51.60;;;;;;5051617;28;20642;-53
2023/02/14 00:12:38;;;;;;;4.55;1.67;;;23.90;51.50;;;;;;5051516;28;20824;-51
2023/02/14 00:15:24;;;;;;;4.60;1.90;;;24.00;51.60;;;;;;5050711;28;20573;-52
2023/02/14 00:17:58;;;;;;;4.78;2.03;;;24.00;51.60;;;;;;5031181;28;20556;-49
2023/02/14 00:20:31;;;;;;;5.13;1.55;;;24.00;51.50;;;;;;5031654;28;20238;-53
2023/02/14 00:23:01;;;;;;;6.95;1.67;;;24.00;51.50;;;;;;5032007;28;20207;-54
2023/02/14 00:25:32;;;;;;;5.00;1.92;;;24.00;51.50;;;;;;5032037;28;20553;-53
2023/02/14 00:28:03;;;;;;;5.20;1.92;;;24.00;51.50;;;;;;5032082;28;20200;-54
2023/02/14 00:30:33;;;;;;;5.57;1.60;;;24.00;51.50;;;;;;5040930;28;20560;-52
2023/02/14 00:33:04;;;;;;;4.93;1.77;;;24.00;51.50;;;;;;5051706;28;20195;-52
2023/02/14 00:35:40;;;;;;;8.05;2.20;;;24.00;51.60;;;;;;5051397;28;20651;-54
2023/02/14 00:38:11;;;;;;;6.45;2.17;;;24.10;51.60;;;;;;5051615;28;20223;-52
2023/02/14 00:40:41;;;;;;;6.10;1.83;;;24.10;51.60;;;;;;5048110;28;20215;-53
2023/02/14 00:43:12;;;;;;;5.10;1.80;;;24.10;51.60;;;;;;5031679;28;20648;-54
2023/02/14 00:45:43;;;;;;;6.65;2.15;;;24.20;51.60;;;;;;5031639;28;20553;-53
2023/02/14 00:48:13;;;;;;;7.25;1.98;;;24.20;51.60;;;;;;5031807;28;20196;-52
2023/02/14 00:50:46;;;;;;;6.72;2.17;;;24.20;51.60;;;;;;5031697;28;20255;-54
2023/02/14 00:53:17;;;;;;;7.82;2.30;;;24.20;51.60;;;;;;5031023;28;20200;-52
2023/02/14 00:55:48;;;;;;;6.82;2.50;;;24.20;51.60;;;;;;5030683;28;20203;-54
2023/02/14 00:58:19;;;;;;;5.50;1.92;;;24.20;51.60;;;;;;5031252;28;20227;-53
2023/02/14 01:00:49;;;;;;;5.05;1.83;;;24.20;51.50;;;;;;5031256;28;20228;-54
2023/02/14 01:03:20;;;;;;;5.82;1.90;;;24.20;51.50;;;;;;5031264;28;20196;-53
2023/02/14 01:05:52;;;;;;;6.47;2.08;;;24.20;51.50;;;;;;5031410;28;20645;-53
2023/02/14 01:08:23;;;;;;;6.10;2.00;;;24.30;51.50;;;;;;5044587;28;20659;-53
2023/02/14 01:10:54;;;;;;;5.93;2.20;;;24.30;51.50;;;;;;5050348;28;20215;-52
2023/02/14 01:13:25;;;;;;;4.80;1.90;;;24.30;51.50;;;;;;5051258;28;20195;-53
2023/02/14 01:15:56;;;;;;;5.22;1.80;;;24.30;51.50;;;;;;5051177;28;20202;-54
2023/02/14 01:18:26;;;;;;;5.43;1.80;;;24.30;51.50;;;;;;5050715;28;20222;-53
2023/02/14 01:20:59;;;;;;;4.95;1.85;;;24.30;51.50;;;;;;5050912;28;20220;-51
2023/02/14 01:23:30;;;;;;;7.07;2.08;;;24.40;51.50;;;;;;5050949;28;20196;-53
2023/02/14 01:26:00;;;;;;;4.03;1.45;;;24.40;51.50;;;;;;5040149;28;20199;-51
2023/02/14 01:28:31;;;;;;;4.60;1.55;;;24.40;51.50;;;;;;5031549;28;20283;-51
2023/02/14 01:31:12;;;;;;;5.63;1.98;;;24.40;51.40;;;;;;5031227;28;20227;-50
2023/02/14 01:33:43;;;;;;;4.72;1.80;;;24.50;51.40;;;;;;5030718;28;20287;-53
2023/02/14 01:36:26;;;;;;;3.78;1.65;;;24.50;51.40;;;;;;5034965;28;20207;-54
2023/02/14 01:38:58;;;;;;;5.65;1.80;;;24.50;52.00;;;;;;5053129;28;20227;-51
2023/02/14 01:41:30;;;;;;;5.50;1.88;;;24.50;51.30;;;;;;5054655;28;20718;-52
2023/02/14 01:44:07;;;;;;;3.97;1.77;;;24.50;51.20;;;;;;5054557;28;20199;-52
2023/02/14 01:46:39;;;;;;;3.92;1.67;;;24.50;51.20;;;;;;5054506;28;20682;-53
2023/02/14 01:49:13;;;;;;;5.30;2.00;;;24.50;51.10;;;;;;5054246;28;20195;-57
2023/02/14 01:51:49;;;;;;;7.50;2.40;;;24.50;51.10;;;;;;5054431;28;20218;-53
2023/02/14 01:54:22;;;;;;;4.07;1.60;;;24.50;51.80;;;;;;5053931;28;20469;-55
2023/02/14 01:56:56;;;;;;;5.47;1.85;;;24.50;51.10;;;;;;5054252;28;20191;-54
2023/02/14 01:59:29;;;;;;;5.75;1.75;;;24.60;51.10;;;;;;5054405;28;20222;-55
2023/02/14 02:02:01;;;;;;;5.43;1.92;;;24.60;51.20;;;;;;5054262;28;20215;-54
2023/02/14 02:04:36;;;;;;;4.28;2.10;;;24.60;51.20;;;;;;5054657;28;20200;-54
2023/02/14 02:07:11;;;;;;;5.05;1.95;;;24.60;51.10;;;;;;5054421;28;20202;-56
2023/02/14 02:09:48;;;;;;;6.72;1.80;;;24.60;51.10;;;;;;5054281;28;20194;-57
2023/02/14 02:12:19;;;;;;;5.47;1.80;;;24.60;51.10;;;;;;5053945;28;20219;-57
2023/02/14 02:14:52;;;;;;;5.07;1.88;;;24.60;51.10;;;;;;5053738;28;20675;-56
2023/02/14 02:17:30;;;;;;;6.90;2.13;;;24.70;51.10;;;;;;5053636;28;20192;-55
2023/02/14 02:20:48;;;;;;;5.30;1.90;;;24.70;51.10;;;;;;5039937;28;20695;-57
2023/02/14 02:23:52;;;;;;;7.45;2.00;;;24.60;51.10;;;;;;5002857;28;20206;-57
2023/02/14 02:27:12;;;;;;;4.90;2.00;;;24.70;51.10;;;;;;5049113;28;20191;-57
2023/02/14 02:30:14;;;;;;;7.32;2.40;;;24.70;51.10;;;;;;5018020;28;20200;-57
2023/02/14 02:33:27;;;;;;;5.65;1.80;;;24.70;51.00;;;;;;5033551;28;20199;-57
2023/02/14 02:36:21;;;;;;;5.88;2.30;;;24.70;51.10;;;;;;5008832;28;20206;-57
2023/02/14 02:39:08;;;;;;;5.05;1.98;;;24.70;51.10;;;;;;5050231;28;20694;-57
2023/02/14 02:41:48;;;;;;;6.35;2.03;;;24.70;51.20;;;;;;5052303;28;20226;-57
2023/02/14 02:44:25;;;;;;;5.78;2.20;;;24.70;51.20;;;;;;5044379;28;20204;-57
2023/02/14 02:47:01;;;;;;;5.97;2.35;;;24.70;51.30;;;;;;5032717;28;20200;-58
2023/02/14 02:55:27;;;;;;;5.28;1.98;;;24.70;51.50;;;;;;5032271;28;20207;-57
2023/02/14 02:57:59;;;;;;;6.97;2.17;;;24.70;51.50;;;;;;5032263;28;20180;-57
2023/02/14 03:00:31;;;;;;;10.65;2.90;;;24.70;51.50;;;;;;5032346;28;20228;-56
2023/02/14 03:05:49;;;;;;;7.10;1.80;;;24.70;51.80;;;;;;5033377;28;20220;-59
2023/02/14 03:08:22;;;;;;;9.85;2.35;;;24.70;51.90;;;;;;5032686;28;20196;-58
2023/02/14 03:10:54;;;;;;;9.88;2.70;;;24.70;52.00;;;;;;5032218;28;20231;-56
2023/02/14 03:13:53;;;;;;;6.88;2.20;;;24.70;52.00;;;;;;5032098;28;20203;-57
2023/02/14 03:16:58;;;;;;;7.20;2.25;;;24.70;52.00;;;;;;5032813;28;20188;-57
2023/02/14 03:22:51;;;;;;;4.20;1.83;;;24.70;51.90;;;;;;5039020;28;20198;-57
2023/02/14 03:25:36;;;;;;;10.57;2.78;;;24.70;51.90;;;;;;5045084;28;20212;-57
2023/02/14 03:28:14;;;;;;;8.82;2.75;;;24.70;51.90;;;;;;5032415;28;20199;-58
2023/02/14 03:30:52;;;;;;;6.78;2.45;;;24.70;51.90;;;;;;5032054;28;20587;-58
2023/02/14 03:33:29;;;;;;;6.00;2.20;;;24.70;52.00;;;;;;5031943;28;20200;-58
2023/02/14 03:36:05;;;;;;;4.63;2.10;;;24.70;52.00;;;;;;5041762;28;20195;-58
2023/02/14 03:38:41;;;;;;;7.45;2.90;;;24.70;52.00;;;;;;5046822;28;20200;-58
2023/02/14 03:41:18;;;;;;;7.75;2.20;;;24.70;52.10;;;;;;5051608;28;20219;-58
2023/02/14 03:43:51;;;;;;;7.28;2.40;;;24.80;52.20;;;;;;5050941;28;20195;-58
2023/02/14 03:46:27;;;;;;;8.13;2.35;;;24.70;52.10;;;;;;5051568;28;20196;-58
2023/02/14 03:49:00;;;;;;;7.85;2.70;;;24.70;52.10;;;;;;5050798;28;20193;-58
2023/02/14 03:51:34;;;;;;;5.80;2.50;;;24.70;52.10;;;;;;5051522;28;20219;-58
2023/02/14 03:54:07;;;;;;;6.25;2.45;;;24.80;52.20;;;;;;5051229;28;20200;-58
2023/02/14 03:56:43;;;;;;;6.65;2.30;;;24.80;52.20;;;;;;5050831;28;20191;-58
2023/02/14 03:59:17;;;;;;;8.27;2.53;;;24.70;52.20;;;;;;5050874;28;20219;-55
2023/02/14 04:01:50;;;;;;;9.82;2.88;;;24.70;52.20;;;;;;5037119;28;20215;-56
2023/02/14 04:04:24;;;;;;;6.13;2.15;;;24.70;52.30;;;;;;5031193;28;20203;-55
2023/02/14 04:06:55;;;;;;;6.38;2.38;;;24.70;52.30;;;;;;5033391;28;20231;-56
2023/02/14 04:09:25;;;;;;;6.65;2.25;;;24.70;52.30;;;;;;5050812;28;20203;-54
2023/02/14 04:11:58;;;;;;;9.77;2.78;;;24.70;52.30;;;;;;5050891;28;20246;-55
2023/02/14 04:14:29;;;;;;;5.85;2.05;;;24.80;52.30;;;;;;5040061;28;20193;-55
2023/02/14 04:19:46;;;;;;;10.32;2.45;;;24.70;52.30;;;;;;5031007;28;20247;-56
2023/02/14 04:22:17;;;;;;;9.05;2.58;;;24.70;52.30;;;;;;5032913;28;20580;-57
2023/02/14 04:24:48;;;;;;;6.10;2.30;;;24.70;52.30;;;;;;5031510;28;20199;-54
2023/02/14 04:27:20;;;;;;;7.32;2.40;;;24.70;52.40;;;;;;5030680;28;20192;-55
2023/02/14 04:29:52;;;;;;;9.68;2.72;;;24.70;52.40;;;;;;5030930;28;20200;-53
2023/02/14 04:32:23;;;;;;;8.00;2.50;;;24.70;52.40;;;;;;5030999;28;20216;-54
2023/02/14 04:34:54;;;;;;;8.88;2.92;;;24.70;52.40;;;;;;5031120;28;20571;-50
2023/02/14 04:37:25;;;;;;;8.80;2.70;;;24.70;52.50;;;;;;5036718;28;20207;-56
2023/02/14 04:39:55;;;;;;;7.03;2.67;;;24.70;52.50;;;;;;5039498;28;20227;-55
2023/02/14 04:42:28;;;;;;;7.35;2.15;;;24.70;52.50;;;;;;5031542;28;20211;-55
2023/02/14 04:44:59;;;;;;;6.88;3.00;;;24.70;53.10;;;;;;5050687;28;20442;-52
2023/02/14 04:47:29;;;;;;;7.95;2.40;;;24.70;52.50;;;;;;5049737;28;20222;-54
2023/02/14 04:50:00;;;;;;;6.05;2.35;;;24.70;52.50;;;;;;5030536;28;20489;-55
2023/02/14 04:52:31;;;;;;;8.30;2.63;;;24.70;52.40;;;;;;5030397;28;20691;-54
2023/02/14 04:55:01;;;;;;;5.18;2.10;;;24.70;52.40;;;;;;5030456;28;20428;-51
2023/02/14 04:57:34;;;;;;;6.15;2.40;;;24.70;52.40;;;;;;5030945;28;20436;-53
2023/02/14 05:00:05;;;;;;;5.95;2.13;;;24.70;52.30;;;;;;5030065;28;20223;-53
2023/02/14 05:02:36;;;;;;;4.65;2.10;;;24.60;52.30;;;;;;5030450;28;20224;-53
2023/02/14 05:05:07;;;;;;;7.55;2.03;;;24.60;52.30;;;;;;5031137;28;20212;-56
2023/02/14 05:07:38;;;;;;;7.40;2.35;;;24.60;52.30;;;;;;5037649;28;20199;-52
2023/02/14 05:10:09;;;;;;;6.32;1.98;;;24.60;52.30;;;;;;5053402;28;20191;-53
2023/02/14 05:12:42;;;;;;;8.02;2.40;;;24.60;52.40;;;;;;5054535;28;20694;-55
2023/02/14 05:15:13;;;;;;;5.57;1.85;;;24.60;52.30;;;;;;5037525;28;20192;-53
2023/02/14 05:17:43;;;;;;;5.93;2.10;;;24.60;52.30;;;;;;5034306;28;20586;-55
2023/02/14 05:20:14;;;;;;;6.60;2.53;;;24.60;52.30;;;;;;5034572;28;20452;-53
2023/02/14 05:22:45;;;;;;;6.20;2.30;;;24.50;52.30;;;;;;5034490;28;20192;-54
2023/02/14 05:25:16;;;;;;;7.45;2.42;;;24.50;52.30;;;;;;5039142;28;20206;-56
2023/02/14 05:27:48;;;;;;;7.20;2.70;;;24.50;52.30;;;;;;5053574;28;20226;-53
2023/02/14 05:30:24;;;;;;;4.55;2.00;;;24.50;52.30;;;;;;5044032;28;20211;-56
2023/02/14 05:32:54;;;;;;;6.10;2.63;;;24.50;52.30;;;;;;5034733;28;20200;-55
2023/02/14 05:35:25;;;;;;;5.57;2.20;;;24.50;52.30;;;;;;5034338;28;20203;-54
2023/02/14 05:37:56;;;;;;;5.47;2.20;;;24.50;52.30;;;;;;5044546;28;20192;-53
2023/02/14 05:40:27;;;;;;;6.25;2.80;;;24.50;52.30;;;;;;5054405;28;20229;-55
2023/02/14 05:43:00;;;;;;;3.33;1.70;;;24.50;52.30;;;;;;5049159;28;20671;-55
2023/02/14 05:45:30;;;;;;;6.07;2.58;;;24.50;52.30;;;;;;5034636;28;20206;-56
2023/02/14 05:48:01;;;;;;;8.63;2.60;;;24.50;52.30;;;;;;5046675;28;20658;-55
2023/02/14 05:50:32;;;;;;;6.68;2.05;;;24.50;52.30;;;;;;5052037;28;20235;-55
2023/02/14 05:53:03;;;;;;;5.75;2.22;;;24.40;52.20;;;;;;5054049;28;20199;-55
2023/02/14 05:55:34;;;;;;;5.85;2.40;;;24.40;52.20;;;;;;5053189;28;20200;-52
2023/02/14 05:58:07;;;;;;;4.75;2.10;;;24.40;52.20;;;;;;5033925;28;20204;-54
2023/02/14 06:00:38;;;;;;;4.63;2.38;;;24.40;52.30;;;;;;5033917;28;20230;-52
2023/02/14 06:03:08;;;;;;;6.07;2.25;;;24.40;52.20;;;;;;5034422;28;20361;-53
2023/02/14 06:05:39;;;;;;;5.82;2.25;;;24.40;52.30;;;;;;5034209;28;20203;-55
2023/02/14 06:08:10;;;;;;;5.25;2.40;;;24.40;52.30;;;;;;5045999;28;20206;-55
2023/02/14 06:10:40;;;;;;;5.75;2.47;;;24.40;52.30;;;;;;5048070;28;20227;-53
2023/02/14 06:13:13;;;;;;;4.53;1.98;;;24.40;52.30;;;;;;5034008;28;20196;-55
2023/02/14 06:15:44;;;;;;;5.63;2.45;;;24.30;52.30;;;;;;5052367;28;20195;-55
2023/02/14 06:18:14;;;;;;;5.55;2.30;;;24.30;52.20;;;;;;5053696;28;20686;-55
2023/02/14 06:20:45;;;;;;;5.45;2.58;;;24.30;52.20;;;;;;5047128;28;20231;-56
2023/02/14 06:23:16;;;;;;;5.97;2.03;;;24.30;52.20;;;;;;5033960;28;20652;-56
2023/02/14 06:25:46;;;;;;;4.68;2.03;;;24.30;52.20;;;;;;5035753;28;20203;-56
2023/02/14 06:28:19;;;;;;;6.93;2.30;;;24.30;52.20;;;;;;5033631;28;20563;-55
2023/02/14 06:30:50;;;;;;;5.82;2.10;;;24.30;52.20;;;;;;5046490;28;20215;-54
2023/02/14 06:33:20;;;;;;;3.58;1.70;;;24.30;52.10;;;;;;5053035;28;20192;-54
2023/02/14 06:35:51;;;;;;;6.00;2.35;;;24.30;52.10;;;;;;5052708;28;20196;-51
2023/02/14 06:38:22;;;;;;;4.55;2.20;;;24.30;52.30;;;;;;5052685;28;20199;-53
2023/02/14 06:40:52;;;;;;;3.92;1.90;;;24.30;52.30;;;;;;5045159;28;20672;-52
2023/02/14 06:43:25;;;;;;;4.20;1.98;;;24.30;52.30;;;;;;5033005;28;20675;-49
2023/02/14 06:45:55;;;;;;;4.63;1.83;;;24.30;52.30;;;;;;5033096;28;20199;-53
2023/02/14 06:48:26;;;;;;;7.22;2.70;;;24.30;52.30;;;;;;5033017;28;20710;-53
2023/02/14 06:50:57;;;;;;;5.60;2.33;;;24.30;52.40;;;;;;5032620;28;20220;-51
2023/02/14 06:53:28;;;;;;;5.97;2.40;;;24.30;52.40;;;;;;5032977;28;20584;-55
2023/02/14 06:55:58;;;;;;;4.43;2.10;;;24.30;52.40;;;;;;5032871;28;20595;-51
2023/02/14 06:58:31;;;;;;;3.65;1.98;;;24.30;52.40;;;;;;5032631;28;20448;-48
2023/02/14 07:01:02;;;;;;;7.05;2.13;;;24.20;52.30;;;;;;5032508;28;20239;-53
2023/02/14 07:03:32;;;;;;;5.82;2.38;;;24.20;52.40;;;;;;5032828;28;20203;-53
2023/02/14 07:06:03;;;;;;;5.47;2.08;;;24.20;52.40;;;;;;5032489;28;20207;-53
2023/02/14 07:08:34;;;;;;;5.70;2.50;;;24.20;52.40;;;;;;5047385;28;20663;-49
2023/02/14 07:11:04;;;;;;;5.13;2.28;;;24.20;52.40;;;;;;5044023;28;20212;-51
2023/02/14 07:13:37;;;;;;;5.30;2.08;;;24.20;52.40;;;;;;5032457;28;20196;-49
2023/02/14 07:16:08;;;;;;;7.32;2.83;;;24.20;52.30;;;;;;5032611;28;20196;-52
2023/02/14 07:18:38;;;;;;;6.03;2.35;;;24.20;52.40;;;;;;5032758;28;20196;-52
2023/02/14 07:21:09;;;;;;;5.30;2.30;;;24.20;52.40;;;;;;5032338;28;20254;-55
2023/02/14 07:23:40;;;;;;;5.15;1.90;;;24.20;52.40;;;;;;5032250;28;20594;-53
2023/02/14 07:26:11;;;;;;;4.30;2.08;;;24.20;52.40;;;;;;5031730;28;20203;-52
2023/02/14 07:28:43;;;;;;;4.53;2.08;;;24.20;52.40;;;;;;5032272;28;20585;-50
2023/02/14 07:31:14;;;;;;;5.15;2.42;;;24.10;52.30;;;;;;5031890;28;20282;-52
2023/02/14 07:33:45;;;;;;;6.05;2.60;;;24.10;52.30;;;;;;5030772;28;20203;-53
2023/02/14 07:36:15;;;;;;;4.80;2.20;;;24.20;52.40;;;;;;5033156;28;20196;-54
2023/02/14 07:38:46;;;;;;;6.28;2.10;;;24.10;52.30;;;;;;5034545;28;20553;-54
2023/02/14 07:41:17;;;;;;;4.85;2.20;;;24.10;52.30;;;;;;5044532;28;20235;-52
2023/02/14 07:43:49;;;;;;;5.07;2.30;;;24.10;52.30;;;;;;5050955;28;20199;-52
2023/02/14 07:46:20;;;;;;;5.15;1.92;;;24.10;52.30;;;;;;5042809;28;20200;-52
2023/02/14 07:48:51;;;;;;;5.30;2.03;;;24.10;52.30;;;;;;5031792;28;20185;-52
2023/02/14 07:51:22;;;;;;;5.20;2.30;;;24.10;52.30;;;;;;5030715;28;20223;-55
2023/02/14 07:53:52;;;;;;;4.88;2.13;;;24.00;52.30;;;;;;5031024;28;20192;-54
2023/02/14 07:59:29;;;;;;;4.90;2.20;;;24.00;52.30;;;;;;5030926;28;20718;-50
2023/02/14 08:05:20;;;;;;;3.35;1.90;;;24.00;52.40;;;;;;5031549;28;20283;-50
2023/02/14 08:07:51;;;;;;;3.78;1.95;;;24.00;52.30;;;;;;5040925;28;20204;-50
2023/02/14 08:10:22;;;;;;;7.57;2.60;;;24.00;52.30;;;;;;5051900;28;20427;-54
2023/02/14 08:13:02;;;;;;;4.40;2.20;;;24.00;52.30;;;;;;5051445;28;20539;-52
2023/02/14 08:18:23;;;;;;;5.75;2.35;;;24.00;52.40;;;;;;5051575;28;20670;-53
2023/02/14 08:20:54;;;;;;;4.15;2.03;;;24.00;52.30;;;;;;5051060;28;20748;-50
2023/02/14 08:23:25;;;;;;;5.78;2.40;;;24.00;52.30;;;;;;5048034;28;20195;-54
2023/02/14 08:25:58;;;;;;;2.80;1.90;;;24.00;52.40;;;;;;5051370;28;20206;-53
2023/02/14 08:28:31;;;;;;;5.07;2.33;;;24.00;52.40;;;;;;5050519;28;20203;-51
2023/02/14 08:31:04;;;;;;;4.55;2.05;;;23.90;52.40;;;;;;5040815;28;20219;-50
2023/02/14 08:33:34;;;;;;;5.97;1.80;;;23.90;52.40;;;;;;5031778;28;20783;-49
2023/02/14 08:36:05;;;;;;;5.35;2.28;;;23.90;52.40;;;;;;5031397;28;20290;-53
2023/02/14 08:38:36;;;;;;;4.88;2.53;;;23.90;52.40;;;;;;5046813;28;20544;-55
2023/02/14 08:41:07;;;;;;;6.97;3.00;;;23.90;52.40;;;;;;5050713;28;20223;-49
2023/02/14 08:43:38;;;;;;;4.00;1.98;;;23.90;53.60;;;;;;5051176;28;20198;-52
2023/02/14 08:46:11;;;;;;;4.82;2.33;;;23.90;53.80;;;;;;5051198;28;20191;-52
2023/02/14 08:48:42;;;;;;;5.18;1.98;;;24.00;53.40;;;;;;5050550;28;20235;-53
2023/02/14 08:51:15;;;;;;;4.68;2.03;;;24.00;53.00;;;;;;5048885;28;20230;-52
2023/02/14 08:53:46;;;;;;;5.78;2.20;;;24.00;52.90;;;;;;5049195;28;20698;-52
2023/02/14 08:56:17;;;;;;;4.10;2.55;;;24.00;52.90;;;;;;5048572;28;20238;-53
2023/02/14 08:58:48;;;;;;;4.70;2.13;;;24.00;52.80;;;;;;5046134;28;20261;-50
2023/02/14 09:01:21;;;;;;;4.10;2.08;;;24.00;52.80;;;;;;5048149;28;20234;-54
2023/02/14 09:03:52;;;;;;;3.65;2.20;;;23.90;52.70;;;;;;5048442;28;20192;-54
2023/02/14 09:06:23;;;;;;;6.15;2.33;;;23.90;52.70;;;;;;5048836;28;20640;-50
2023/02/14 09:08:54;;;;;;;3.78;2.00;;;23.90;52.70;;;;;;5048902;28;20206;-51
2023/02/14 09:11:26;;;;;;;4.43;2.22;;;23.90;52.70;;;;;;5048385;28;20215;-51
2023/02/14 09:13:56;;;;;;;5.38;2.15;;;23.90;52.80;;;;;;5048345;28;20562;-50
2023/02/14 09:16:29;;;;;;;5.68;2.15;;;23.90;52.70;;;;;;5048594;28;20718;-51
2023/02/14 09:19:00;;;;;;;4.85;2.35;;;23.80;52.70;;;;;;5048656;28;20199;-49
2023/02/14 09:21:31;;;;;;;4.50;2.10;;;23.80;52.70;;;;;;5048483;28;20239;-52
2023/02/14 09:24:01;;;;;;;4.60;2.20;;;23.80;52.70;;;;;;5048498;28;20199;-52
2023/02/14 09:26:32;;;;;;;4.70;2.22;;;23.80;52.70;;;;;;5048006;28;20203;-52
2023/02/14 09:29:03;;;;;;;3.47;2.03;;;23.80;52.70;;;;;;5048359;28;20234;-52
2023/02/14 09:31:35;;;;;;;3.25;1.63;;;23.80;52.70;;;;;;5030789;28;20679;-51
2023/02/14 09:36:53;;;;;;;4.25;1.75;;;23.80;52.60;;;;;;5029347;28;20211;-52
2023/02/14 09:39:24;;;;;;;3.03;1.77;;;23.80;52.50;;;;;;5043310;28;20204;-53
2023/02/14 09:42:16;;;;;;;3.63;1.80;;;23.80;52.60;;;;;;5030382;28;20227;-50
2023/02/14 09:44:51;;;;;;;3.40;2.00;;;23.80;52.50;;;;;;5030786;28;20196;-53
2023/02/14 09:47:32;;;;;;;3.97;1.95;;;23.70;52.40;;;;;;5030712;28;20188;-51
2023/02/14 09:50:04;;;;;;;3.42;1.95;;;23.70;52.50;;;;;;5030992;28;20219;-53
2023/02/14 09:52:35;;;;;;;4.57;2.08;;;23.80;52.50;;;;;;5030821;28;20228;-50
2023/02/14 09:55:14;;;;;;;5.50;2.15;;;23.70;52.50;;;;;;5031213;28;20199;-51
2023/02/14 09:57:56;;;;;;;3.63;1.90;;;23.70;52.50;;;;;;5034357;28;20207;-49
2023/02/14 10:00:37;;;;;;;3.03;1.92;;;23.70;52.50;;;;;;5034593;28;20196;-50
2023/02/14 10:03:41;;;;;;;3.50;1.92;;;23.70;52.40;;;;;;5034440;28;20196;-50
2023/02/14 10:06:26;;;;;;;4.18;1.88;;;23.70;52.50;;;;;;5031455;28;20558;-53
2023/02/14 10:09:04;;;;;;;4.43;2.00;;;23.70;52.40;;;;;;5052772;28;20195;-51
2023/02/14 10:11:35;;;;;;;3.22;2.10;;;23.70;52.40;;;;;;5054345;28;20219;-54
2023/02/14 10:14:12;;;;;;;3.72;1.90;;;23.70;52.40;;;;;;5054744;28;20211;-50
2023/02/14 10:16:47;;;;;;;3.67;2.22;;;23.70;53.00;;;;;;5054153;28;20203;-55
2023/02/14 10:19:23;;;;;;;3.15;1.65;;;23.70;52.40;;;;;;5050649;28;20191;-53
2023/02/14 10:21:59;;;;;;;4.07;2.20;;;23.60;52.40;;;;;;5054124;28;20249;-51
2023/02/14 10:24:33;;;;;;;4.20;1.90;;;23.60;52.40;;;;;;5053750;28;20195;-51
2023/02/14 10:27:11;;;;;;;3.47;1.85;;;23.60;52.30;;;;;;5053449;28;20195;-51
2023/02/14 10:29:43;;;;;;;3.58;1.70;;;23.60;52.30;;;;;;5053466;28;20195;-51
2023/02/14 10:32:19;;;;;;;3.40;1.80;;;23.60;52.30;;;;;;5037745;28;20212;-54
2023/02/14 10:34:52;;;;;;;4.03;1.70;;;23.60;52.30;;;;;;5033328;28;20191;-53
2023/02/14 10:37:39;;;;;;;3.15;1.63;;;23.60;52.30;;;;;;5038950;28;20204;-53
2023/02/14 10:40:33;;;;;;;4.82;1.85;;;23.50;52.30;;;;;;5053947;28;20202;-54
2023/02/14 10:43:11;;;;;;;4.15;2.00;;;23.50;52.30;;;;;;5053401;28;20226;-54
2023/02/14 10:45:45;;;;;;;3.42;1.88;;;23.50;52.30;;;;;;5053488;28;20195;-52
2023/02/14 10:48:26;;;;;;;2.85;1.60;;;23.50;52.30;;;;;;5053502;28;20191;-54
2023/02/14 10:51:03;;;;;;;2.50;1.70;;;23.50;52.30;;;;;;5053285;28;20219;-53
2023/02/14 10:53:47;;;;;;;2.72;1.80;;;23.50;52.30;;;;;;5053705;28;20203;-50
2023/02/14 10:56:23;;;;;;;6.22;1.88;;;23.50;52.30;;;;;;5052918;28;20659;-54
2023/02/14 10:58:58;;;;;;;3.00;1.50;;;23.50;52.30;;;;;;5052755;28;20581;-54
2023/02/14 11:01:29;;;;;;;2.63;1.63;;;23.50;52.30;;;;;;5052672;28;20230;-54
2023/02/14 11:04:02;;;;;;;2.80;1.63;;;23.50;52.30;;;;;;5052804;28;21031;-53
2023/02/14 11:06:33;;;;;;;4.05;1.80;;;23.40;52.20;;;;;;5052394;28;20199;-55
2023/02/14 11:09:06;;;;;;;3.15;1.60;;;23.50;52.30;;;;;;5053055;28;20203;-54
2023/02/14 11:11:41;;;;;;;3.83;2.03;;;23.40;52.20;;;;;;5053149;28;20224;-54
2023/02/14 11:14:27;;;;;;;3.88;1.80;;;23.40;52.20;;;;;;5052945;28;20199;-54
2023/02/14 11:16:59;;;;;;;5.28;1.80;;;23.40;52.20;;;;;;5052475;28;20210;-54
2023/02/14 11:19:31;;;;;;;3.60;2.17;;;23.40;52.20;;;;;;5052635;28;20195;-49
2023/02/14 11:22:03;;;;;;;3.08;1.60;;;23.40;52.20;;;;;;5052511;28;20262;-53
2023/02/14 11:24:38;;;;;;;3.08;1.42;;;23.40;52.20;;;;;;5053022;28;20231;-53
2023/02/14 11:27:18;;;;;;;2.45;1.40;;;23.40;52.20;;;;;;5052853;28;20202;-51
2023/02/14 11:29:51;;;;;;;2.75;1.48;;;23.30;52.20;;;;;;5052954;28;20199;-51
2023/02/14 11:32:24;;;;;;;2.70;1.92;;;23.40;52.20;;;;;;5050749;28;20215;-52
2023/02/14 11:34:59;;;;;;;2.15;1.42;;;23.40;52.20;;;;;;5033513;28;20644;-52
2023/02/14 11:37:31;;;;;;;1.83;1.23;;;23.40;52.20;;;;;;5039066;28;20202;-55
2023/02/14 11:40:04;;;;;;;2.63;1.48;;;23.30;52.20;;;;;;5052542;28;20196;-53
2023/02/14 11:42:43;;;;;;;2.65;1.60;;;23.40;52.20;;;;;;5052082;28;20238;-53
2023/02/14 11:45:29;;;;;;;2.92;1.80;;;23.30;52.10;;;;;;5052270;28;20211;-51
2023/02/14 11:48:27;;;;;;;2.15;1.30;;;23.30;52.20;;;;;;5052368;28;20647;-52
2023/02/14 11:51:02;;;;;;;3.38;1.58;;;23.30;52.10;;;;;;4996232;28;20223;-55
2023/02/14 11:53:41;;;;;;;2.58;1.40;;;23.30;52.10;;;;;;5052780;28;20191;-56
2023/02/14 11:56:14;;;;;;;3.22;1.45;;;23.30;52.20;;;;;;5052742;28;20670;-55
2023/02/14 11:58:50;;;;;;;2.67;1.85;;;23.30;52.10;;;;;;5052574;28;20675;-55
2023/02/14 12:01:27;;;;;;;2.35;1.50;;;23.30;52.20;;;;;;5049367;28;20276;-54
2023/02/14 12:03:59;;;;;;;2.97;1.70;;;23.20;52.20;;;;;;5052495;28;20447;-53
2023/02/14 12:06:32;;;;;;;3.00;1.40;;;23.20;52.10;;;;;;5052519;28;20578;-54
2023/02/14 12:09:15;;;;;;;2.95;1.70;;;23.20;52.20;;;;;;5052140;28;20207;-54
2023/02/14 12:11:57;;;;;;;3.38;1.60;;;23.20;52.20;;;;;;5050947;28;20234;-54
2023/02/14 12:14:31;;;;;;;3.33;1.52;;;23.20;52.20;;;;;;5051148;28;20668;-55
2023/02/14 12:17:08;;;;;;;2.70;1.65;;;23.20;52.20;;;;;;5051933;28;20191;-55
2023/02/14 12:19:46;;;;;;;2.85;1.27;;;23.20;52.20;;;;;;5051056;28;20203;-56
2023/02/14 12:22:20;;;;;;;3.08;1.77;;;23.20;52.20;;;;;;5051173;28;20262;-54
2023/02/14 12:25:00;;;;;;;3.22;1.50;;;23.20;52.20;;;;;;5051924;28;20666;-53
2023/02/14 12:27:39;;;;;;;3.33;1.48;;;23.20;52.70;;;;;;5051797;28;20718;-53
2023/02/14 12:30:17;;;;;;;2.47;1.42;;;23.10;52.10;;;;;;5051518;28;20685;-54
2023/02/14 12:32:51;;;;;;;2.33;1.50;;;23.10;52.10;;;;;;5051487;28;20198;-54
2023/02/14 12:35:29;;;;;;;2.38;1.50;;;23.10;52.10;;;;;;5051026;28;20199;-54
2023/02/14 12:38:09;;;;;;;2.30;1.63;;;23.10;52.10;;;;;;5051241;28;20597;-54
2023/02/14 12:40:47;;;;;;;2.63;1.40;;;23.10;52.20;;;;;;5038274;28;20472;-54
2023/02/14 12:43:46;;;;;;;3.30;1.70;;;23.10;52.20;;;;;;5031486;28;20227;-52
2023/02/14 12:46:32;;;;;;;2.58;1.50;;;23.10;52.80;;;;;;5031325;28;20206;-52
2023/02/14 12:49:25;;;;;;;3.70;1.50;;;23.10;52.20;;;;;;5031135;28;20202;-51
2023/02/14 12:52:04;;;;;;;3.05;1.67;;;23.10;52.20;;;;;;5031185;28;20223;-54
2023/02/14 12:54:57;;;;;;;2.40;1.33;;;23.10;52.20;;;;;;5031555;28;20196;-52
2023/02/14 12:57:42;;;;;;;2.65;1.50;;;23.10;52.30;;;;;;5031129;28;20196;-52
2023/02/14 13:00:32;;;;;;;3.80;1.60;;;23.00;52.20;;;;;;5031590;28;20199;-54
2023/02/14 13:03:22;;;;;;;4.22;1.75;;;23.10;52.30;;;;;;5031595;28;20224;-53
2023/02/14 13:06:00;;;;;;;3.03;1.27;;;23.00;52.20;;;;;;5031747;28;20207;-51
2023/02/14 13:08:49;;;;;;;2.85;1.60;;;23.00;52.20;;;;;;5046241;28;20249;-50
2023/02/14 13:11:31;;;;;;;2.53;1.40;;;23.00;52.20;;;;;;5051167;28;20226;-52
2023/02/14 13:14:07;;;;;;;2.58;1.42;;;23.00;52.20;;;;;;5051307;28;20195;-53
2023/02/14 13:16:50;;;;;;;3.45;1.13;;;23.00;52.20;;;;;;5051297;28;20195;-53
2023/02/14 13:19:36;;;;;;;3.70;1.60;;;23.00;52.30;;;;;;5050902;28;20196;-51
2023/02/14 13:22:10;;;;;;;3.25;1.75;;;23.00;52.30;;;;;;5050702;28;20219;-53
2023/02/14 13:24:44;;;;;;;2.67;1.38;;;22.90;52.20;;;;;;5051350;28;20210;-54
2023/02/14 13:27:20;;;;;;;3.22;1.48;;;22.90;52.30;;;;;;5051061;28;20203;-51
2023/02/14 13:29:53;;;;;;;2.53;1.40;;;22.90;52.30;;;;;;5051075;28;20565;-52
2023/02/14 13:32:28;;;;;;;3.88;1.50;;;22.90;52.30;;;;;;5055236;28;20698;-53
2023/02/14 13:35:00;;;;;;;3.53;1.70;;;22.90;52.30;;;;;;5054487;28;20195;-53
2023/02/14 13:37:32;;;;;;;3.78;1.58;;;22.90;52.30;;;;;;5054279;28;20203;-53
2023/02/14 13:40:06;;;;;;;2.97;1.42;;;22.90;52.30;;;;;;5054769;28;20207;-54
2023/02/14 13:43:03;;;;;;;1.95;1.00;;;22.90;52.30;;;;;;5042163;28;20231;-51
2023/02/14 13:46:06;;;;;;;1.98;1.38;;;22.90;52.30;;;;;;5000454;28;20196;-50
2023/02/14 13:48:39;;;;;;;2.88;1.40;;;22.90;52.30;;;;;;5034731;28;20199;-54
2023/02/14 13:51:11;;;;;;;2.05;1.40;;;22.90;52.20;;;;;;5034468;28;20232;-47